Latest Weather Observations for Tennant Creek

IDD60801

Issued at 6:33 pm CST Friday 6 March 2015 (issued every 30 minutes, with the page automatically refreshed every 10 minutes)

About weather observations | Map of weather stations | Latest weather observations for NT | Other Formats
Station Details ID: 015135 Name: TENNANT CREEK AIRPORT Lat: -19.64 Lon: 134.18 Height: 375.7 m
Data from the previous 72 hours. | See also: Recent months at Tennant Creek
Date/Time
CST
Temp
°C
App
Temp
°C
Dew
Point
Rel
Hum
%
Delta-T
°C
Wind Press
QNH
hPa
Press
MSL
hPa
Rain
since 9 am
mm
Dir
 
Spd
km/h
Gust
km/h
Spd
kts
Gust
kts
06/06:30pm 33.3 29.4 3.2 15 15.8 ESE 13 20 7 11 1008.4 - 0.0
06/06:00pm 34.2 28.9 1.8 13 16.7 SE 19 26 10 14 1008.4 1005.7 0.0
06/05:30pm 34.8 29.3 2.1 13 17.0 ESE 20 28 11 15 1008.2 - 0.0
06/05:00pm 35.0 30.3 3.4 14 16.8 SE 17 30 9 16 1008.3 - 0.0
06/04:30pm 35.2 30.6 3.5 14 16.9 ESE 17 24 9 13 1008.4 - 0.0
06/04:00pm 35.5 30.4 4.2 14 16.9 SE 20 30 11 16 1008.5 - 0.0
06/03:30pm 34.9 30.1 4.9 15 16.3 SE 19 28 10 15 1008.7 - 0.0
06/03:00pm 35.2 30.0 5.6 16 16.3 E 22 30 12 16 1009.0 1006.4 0.0
06/02:30pm 34.9 30.0 5.3 16 16.2 SE 20 33 11 18 1009.6 - 0.0
06/02:00pm 34.5 29.3 5.4 16 15.9 ESE 22 32 12 17 1009.8 - 0.0
06/01:30pm 33.8 28.5 5.0 16 15.6 ESE 22 35 12 19 1010.2 - 0.0
06/01:00pm 34.2 27.8 5.4 16 15.7 E 28 39 15 21 1010.8 - 0.0
06/12:30pm 32.6 26.2 5.1 18 14.8 ESE 28 39 15 21 1011.1 - 0.0
06/12:00pm 32.2 24.9 4.6 17 14.7 ESE 32 43 17 23 1011.6 1009.0 0.0
06/11:30am 32.3 25.6 5.5 18 14.5 ESE 30 44 16 24 1011.8 - 0.0
06/11:00am 31.7 24.2 4.6 18 14.4 ESE 33 46 18 25 1012.0 - 0.0
06/10:30am 30.6 23.0 4.0 18 13.9 ESE 33 46 18 25 1012.3 - 0.0
06/10:00am 29.8 21.3 3.4 18 13.6 ESE 37 50 20 27 1012.5 - 0.0
06/09:30am 29.5 22.1 3.8 19 13.3 ESE 32 48 17 26 1012.5 - 0.0
06/08:39am 28.2 21.5 3.9 21 12.5 ESE 28 48 15 26 1012.7 - 1.4
06/08:30am 27.7 21.7 5.2 23 11.8 ESE 26 41 14 22 1012.7 - 1.4
06/08:00am 25.9 20.8 6.2 28 10.4 ESE 22 30 12 16 1012.5 - 1.4
06/07:30am 25.3 20.4 6.9 31 9.8 ESE 22 30 12 16 1012.2 - 1.4
06/07:00am 25.4 20.9 6.8 30 9.9 ESE 20 28 11 15 1011.7 - 1.4
06/06:30am 25.6 21.0 6.6 29 10.1 ESE 20 28 11 15 1011.4 - 1.4
06/06:00am 26.0 21.4 6.4 28 10.4 ESE 20 28 11 15 1011.1 1008.5 1.4
06/05:30am 26.4 21.8 6.5 28 10.6 ESE 20 32 11 17 1010.8 - 1.4
06/05:00am 26.3 22.1 7.5 30 10.2 ESE 19 26 10 14 1010.6 - 1.4
06/04:30am 26.9 22.1 7.4 29 10.6 ESE 22 28 12 15 1010.5 - 1.4
06/04:00am 27.2 23.5 7.8 29 10.6 ESE 17 26 9 14 1010.5 - 1.4
06/03:30am 27.7 23.4 7.9 28 10.9 ESE 20 32 11 17 1010.4 - 1.4
06/03:00am 27.9 23.4 8.7 30 10.7 ESE 22 30 12 16 1010.5 1007.8 1.4
06/02:30am 28.0 25.2 10.1 32 10.2 ESE 15 24 8 13 1010.6 - 1.4
06/02:00am 28.1 26.0 11.3 35 9.8 ESE 13 17 7 9 1010.6 - 1.4
06/01:30am 28.8 26.7 11.1 33 10.3 ESE 13 20 7 11 1010.9 - 1.4
06/01:00am 29.2 27.3 11.7 34 10.3 SE 13 20 7 11 1011.1 - 1.4
06/12:30am 29.5 26.5 12.4 35 10.2 SE 20 28 11 15 1011.1 - 1.4
06/12:00am 29.2 28.0 14.0 39 9.3 SE 13 20 7 11 1011.2 1008.6 1.4
 
Date/Time
CST
Temp
°C
App
Temp
°C
Dew
Point
Rel
Hum
%
Delta-T
°C
Wind Press
QNH
hPa
Press
MSL
hPa
Rain
since 9 am
mm
Dir
 
Spd
km/h
Gust
km/h
Spd
kts
Gust
kts
05/11:30pm 30.0 28.4 14.0 37 9.8 SE 15 20 8 11 1011.3 - 1.4
05/11:00pm 30.3 28.7 14.0 37 10.0 SE 15 22 8 12 1011.4 - 1.4
05/10:30pm 30.5 29.3 14.0 36 10.1 SE 13 22 7 12 1011.3 - 1.4
05/10:00pm 30.3 29.4 14.8 39 9.6 ESE 13 20 7 11 1011.4 - 1.4
05/09:30pm 30.7 29.9 15.0 38 9.8 ESE 13 17 7 9 1011.2 - 1.4
05/09:00pm 31.2 30.7 15.0 37 10.1 ESE 11 17 6 9 1010.7 1008.0 1.4
05/08:30pm 32.0 30.9 14.4 34 10.9 ESE 13 20 7 11 1010.4 - 1.4
05/08:00pm 31.9 32.0 15.4 37 10.4 SE 9 15 5 8 1010.1 - 1.4
05/07:30pm 32.9 32.2 14.4 32 11.5 SE 11 15 6 8 1009.7 - 1.4
05/07:00pm 33.7 32.1 13.8 30 12.3 SE 15 20 8 11 1009.2 - 1.4
05/06:30pm 34.7 32.4 14.0 28 12.9 SE 19 26 10 14 1008.9 - 1.4
05/06:00pm 34.7 32.6 14.7 30 12.6 SE 19 26 10 14 1008.8 1006.2 1.4
05/05:30pm 35.2 33.4 16.1 32 12.3 SE 20 30 11 16 1008.7 - 1.4
05/05:00pm 34.3 37.0 20.6 44 9.3 SSE 7 11 4 6 1008.3 - 1.4
05/04:45pm 32.6 35.8 21.7 52 7.5 SSE 7 13 4 7 1008.5 - 1.4
05/04:44pm 32.6 35.8 21.2 51 7.8 SE 6 13 3 7 1008.5 - 1.4
05/04:30pm 31.9 29.9 18.2 44 9.0 SE 26 52 14 28 1008.7 - 1.4
05/04:29pm 31.4 28.9 18.1 45 8.7 ESE 28 52 15 28 1008.8 - 1.4
05/04:27pm 30.9 30.1 21.7 58 6.3 ESE 28 46 15 25 1008.8 - 1.2
05/04:00pm 34.0 33.5 18.6 40 10.2 SSE 19 28 10 15 1008.7 - 0.2
05/03:30pm 36.2 35.7 17.9 34 12.1 SE 17 28 9 15 1008.9 - 0.2
05/03:00pm 34.8 34.1 18.3 37 10.9 SE 19 30 10 16 1009.5 1006.8 0.2
05/02:30pm 36.2 36.6 19.0 36 11.5 SE 15 24 8 13 1009.9 - 0.2
05/02:00pm 35.7 36.0 20.3 40 10.5 S 19 32 10 17 1010.4 - 0.2
05/01:30pm 35.0 35.7 19.7 40 10.3 SSE 15 33 8 18 1010.9 - 0.2
05/01:00pm 33.9 35.5 21.4 48 8.6 SSE 15 26 8 14 1011.6 - 0.2
05/12:30pm 32.6 33.8 22.2 54 7.2 S 19 26 10 14 1012.4 - 0.2
05/12:00pm 33.2 34.0 21.4 50 8.1 S 19 26 10 14 1012.8 1010.1 0.2
05/11:30am 32.3 34.4 21.7 53 7.3 S 13 22 7 12 1013.1 - 0.2
05/11:00am 32.0 33.9 21.3 53 7.3 SSE 13 22 7 12 1013.6 - 0.2
05/10:30am 30.6 33.0 22.2 61 5.8 S 13 17 7 9 1014.0 - 0.0
05/10:00am 29.7 31.2 21.3 60 5.7 SE 15 24 8 13 1014.2 - 0.0
05/09:30am 29.1 32.0 21.8 64 5.0 SSE 9 15 5 8 1013.9 - 0.0
05/09:00am 28.8 32.0 21.7 65 4.8 SSE 7 11 4 6 1013.5 1010.9 0.0
05/08:30am 28.3 31.6 21.8 68 4.4 SSE 7 15 4 8 1013.2 - 0.0
05/08:00am 27.0 29.3 21.4 71 3.8 SSE 11 15 6 8 1012.9 - 0.0
05/07:30am 26.2 29.3 22.2 78 2.7 SSE 9 15 5 8 1012.9 - 0.0
05/07:00am 27.1 30.6 22.1 74 3.4 SSE 7 15 4 8 1012.7 - 0.0
05/06:30am 28.6 30.7 20.9 63 5.2 ESE 11 17 6 9 1011.9 - 0.0
05/06:00am 28.9 30.6 21.0 62 5.3 SE 13 24 7 13 1011.3 1008.7 0.0
05/05:30am 28.9 31.9 21.2 63 5.2 ENE 7 9 4 5 1010.3 - 0.0
05/05:00am 29.0 32.0 20.8 61 5.5 E 6 7 3 4 1010.0 - 0.0
05/04:30am 29.0 31.8 20.8 61 5.5 ENE 7 9 4 5 1009.6 - 0.0
05/04:00am 29.3 31.8 21.0 61 5.6 NE 9 13 5 7 1009.4 - 0.0
05/03:30am 28.9 32.0 21.4 64 5.1 NNE 7 9 4 5 1009.7 - 0.0
05/03:00am 28.8 31.3 21.1 63 5.2 NE 9 15 5 8 1009.8 1007.1 0.0
05/02:30am 29.5 31.8 20.6 58 6.0 NE 9 20 5 11 1010.3 - 0.0
05/02:00am 30.2 32.2 20.0 54 6.8 ESE 9 11 5 6 1010.6 - 0.0
05/01:30am 29.9 32.7 20.9 58 6.1 E 7 9 4 5 1010.9 - 0.0
05/01:00am 30.0 32.7 20.6 57 6.3 E 7 11 4 6 1011.4 - 0.0
05/12:30am 29.8 32.7 21.1 59 5.9 E 7 9 4 5 1011.4 - 0.0
05/12:00am 29.9 33.2 21.5 60 5.7 E 6 7 3 4 1011.6 1009.0 0.0
 
Date/Time
CST
Temp
°C
App
Temp
°C
Dew
Point
Rel
Hum
%
Delta-T
°C
Wind Press
QNH
hPa
Press
MSL
hPa
Rain
since 9 am
mm
Dir
 
Spd
km/h
Gust
km/h
Spd
kts
Gust
kts
04/11:30pm 30.6 33.4 20.5 54 6.8 SE 6 7 3 4 1011.5 - 0.0
04/11:00pm 30.8 34.0 21.2 56 6.5 E 6 7 3 4 1011.5 - 0.0
04/10:30pm 31.6 34.0 20.0 50 7.8 SE 7 9 4 5 1011.4 - 0.0
04/10:00pm 31.4 34.2 20.4 52 7.4 ESE 6 7 3 4 1011.3 - 0.0
04/09:30pm 31.7 35.1 20.9 52 7.3 E 4 6 2 3 1011.0 - 0.0
04/09:00pm 32.5 34.9 19.6 46 8.6 SE 6 7 3 4 1010.9 1008.3 0.0
04/08:30pm 32.5 35.2 20.2 48 8.3 SE 6 7 3 4 1010.6 - 0.0
04/08:00pm 32.9 35.5 20.0 46 8.7 SE 6 9 3 5 1010.2 - 0.0
04/07:30pm 33.3 35.6 19.4 44 9.3 ESE 6 9 3 5 1009.9 - 0.0
04/07:00pm 33.8 35.2 18.7 40 10.0 ESE 9 11 5 6 1009.7 - 0.0
04/06:30pm 34.4 35.2 18.2 38 10.7 ESE 11 15 6 8 1009.6 - 0.0
04/06:00pm 34.9 35.6 17.9 36 11.2 E 11 20 6 11 1009.6 1006.9 0.0
04/05:30pm 35.3 35.4 17.4 34 11.7 E 13 24 7 13 1009.6 - 0.0
04/05:00pm 35.1 35.1 17.1 34 11.7 E 13 24 7 13 1009.4 - 0.0
04/04:30pm 35.5 35.6 17.5 34 11.8 ENE 13 24 7 13 1009.4 - 0.0
04/04:00pm 35.9 35.1 17.2 33 12.2 ENE 17 30 9 16 1009.6 - 0.0
04/03:30pm 35.4 34.7 16.5 32 12.2 ENE 15 24 8 13 1009.9 - 0.0
04/03:00pm 35.3 34.2 17.4 34 11.7 ENE 19 26 10 14 1010.3 1007.6 0.0
04/02:30pm 35.7 36.1 18.2 35 11.6 NE 13 24 7 13 1010.6 - 0.0
04/02:00pm 35.5 33.7 16.9 33 12.1 E 22 26 12 14 1010.6 - 0.0
04/01:30pm 35.7 34.7 16.5 32 12.4 NE 17 30 9 16 1010.7 - 0.0
04/01:00pm 35.4 35.6 18.5 37 11.2 NE 15 26 8 14 1011.2 - 0.0
04/12:30pm 34.9 37.1 20.5 43 9.8 E 9 20 5 11 1011.9 - 0.0
04/12:00pm 34.1 36.2 20.9 46 9.0 SE 11 17 6 9 1012.4 1009.7 0.0
04/11:30am 33.1 35.8 21.4 50 8.0 E 9 15 5 8 1012.6 - 0.0
04/11:00am 32.7 36.5 22.8 56 6.9 SE 7 15 4 8 1013.1 - 0.0
04/10:30am 31.4 35.1 22.3 58 6.3 NE 6 11 3 6 1013.3 - 0.0
04/10:00am 30.5 34.4 22.9 64 5.3 NNE 7 13 4 7 1013.4 - 0.0
04/09:30am 29.5 33.3 22.7 67 4.7 NNE 7 11 4 6 1013.7 - 0.0
04/09:00am 29.0 33.5 23.9 74 3.6 E 7 11 4 6 1013.6 1011.0 4.6
04/08:30am 27.5 32.3 24.4 83 2.2 E 7 13 4 7 1013.5 - 4.6
04/08:00am 27.1 31.2 23.9 82 2.2 E 9 13 5 7 1013.1 - 4.6
04/07:30am 26.2 30.3 24.0 88 1.5 ESE 9 11 5 6 1012.7 - 4.6
04/07:00am 25.7 30.1 23.8 89 1.3 E 7 11 4 6 1012.2 - 4.6
04/06:30am 25.7 29.8 23.2 86 1.7 E 7 9 4 5 1011.8 - 4.6
04/06:00am 25.7 30.3 23.8 89 1.3 ESE 6 9 3 5 1011.1 1008.5 4.6
04/05:30am 25.8 30.6 24.2 91 1.1 ESE 6 7 3 4 1010.5 - 4.6
04/05:00am 25.8 30.6 24.1 90 1.2 SSE 6 7 3 4 1010.1 - 4.6
04/04:30am 25.9 31.2 24.3 91 1.1 SSE 4 6 2 3 1009.9 - 4.6
04/04:00am 26.0 31.1 24.7 92 0.9 S 6 9 3 5 1009.7 - 4.6
04/03:30am 26.7 32.4 23.8 84 2.0 CALM 0 0 0 0 1009.5 - 4.6
04/03:00am 26.4 32.2 24.0 87 1.7 CALM 0 0 0 0 1009.7 1007.0 4.6
04/02:30am 26.5 32.6 24.4 88 1.5 CALM 0 0 0 0 1009.6 - 4.6
04/02:00am 26.7 32.3 23.5 82 2.2 CALM 0 0 0 0 1009.8 - 4.6
04/01:30am 26.7 32.2 23.4 82 2.3 CALM 0 0 0 0 1009.9 - 4.2
04/01:00am 26.5 31.9 23.9 85 1.8 N 2 6 1 3 1010.0 - 4.2
04/12:30am 26.4 32.1 23.7 85 1.9 CALM 0 0 0 0 1010.4 - 4.2
04/12:00am 26.1 31.7 23.5 85 1.8 CALM 0 0 0 0 1010.5 1007.8 4.2
 
Date/Time
CST
Temp
°C
App
Temp
°C
Dew
Point
Rel
Hum
%
Delta-T
°C
Wind Press
QNH
hPa
Press
MSL
hPa
Rain
since 9 am
mm
Dir
 
Spd
km/h
Gust
km/h
Spd
kts
Gust
kts
03/11:30pm 26.0 30.7 23.4 85 1.8 NNW 4 6 2 3 1010.4 - 4.2
03/11:00pm 25.8 31.1 23.0 84 1.9 CALM 0 7 0 4 1010.4 - 4.2
03/10:30pm 25.5 30.2 23.3 88 1.5 WNW 4 6 2 3 1010.8 - 4.2
03/10:00pm 25.4 29.1 22.6 84 1.9 W 7 11 4 6 1010.9 - 4.2
03/09:30pm 25.1 29.6 22.9 87 1.5 NW 4 7 2 4 1010.7 - 4.2
03/09:00pm 24.6 28.2 22.1 86 1.7 W 6 17 3 9 1010.7 1008.0 4.2
03/08:30pm 24.9 28.2 21.9 83 2.0 E 7 15 4 8 1011.2 - 4.2
03/08:17pm 24.6 23.1 21.0 80 2.4 E 30 48 16 26 1011.8 - 4.2
03/08:13pm 24.5 22.6 20.9 80 2.4 E 32 48 17 26 1011.8 - 4.2
03/08:04pm 23.7 25.0 21.6 88 1.4 NNE 17 35 9 19 1011.6 - 4.0
03/08:00pm 23.5 23.7 21.4 88 1.4 NNE 22 35 12 19 1011.4 - 4.0
03/07:39pm 23.1 17.9 21.1 88 1.3 NE 50 69 27 37 1010.9 - 1.0
03/07:36pm 23.2 17.6 21.1 88 1.4 ENE 52 76 28 41 1010.7 - 0.2
03/07:30pm 23.9 18.0 21.2 85 1.8 ENE 54 82 29 44 1010.6 - 0.0
03/07:25pm 24.9 18.5 21.0 79 2.6 ENE 56 82 30 44 1010.3 - 0.0
03/07:21pm 26.5 19.2 20.3 68 4.1 ENE 59 70 32 38 1010.3 - 0.0
03/07:08pm 29.8 27.1 21.9 62 5.4 ENE 39 61 21 33 1010.0 - 0.0
03/07:00pm 34.3 33.3 19.6 42 9.9 NNE 24 35 13 19 1008.8 - 0.0

Other Formats:

Comma delimited format used in spreadsheet applications
http://www.bom.gov.au/fwo/IDD60801/IDD60801.94238.axf

JavaScript Object Notation format (JSON) in row-major order
http://www.bom.gov.au/fwo/IDD60801/IDD60801.94238.json